createdAt,value
2018-07-23T00:02:16.079Z,21.97
2018-07-23T00:04:47.236Z,22.43
2018-07-23T00:07:18.800Z,23.50
2018-07-23T00:09:48.329Z,21.47
2018-07-23T00:12:16.677Z,22.30
2018-07-23T00:14:45.253Z,22.00
2018-07-23T00:17:13.631Z,19.83
2018-07-23T00:19:42.069Z,20.37
2018-07-23T00:22:10.487Z,20.50
2018-07-23T00:24:39.324Z,22.55
2018-07-23T00:27:07.762Z,22.17
2018-07-23T00:29:36.126Z,21.03
2018-07-23T00:32:04.474Z,21.60
2018-07-23T00:34:32.801Z,21.80
2018-07-23T00:37:01.191Z,22.17
2018-07-23T00:39:29.529Z,20.73
2018-07-23T00:41:57.905Z,22.17
2018-07-23T00:44:26.376Z,20.00
2018-07-23T00:46:54.811Z,22.07
2018-07-23T00:49:23.186Z,21.03
2018-07-23T00:51:51.552Z,21.80
2018-07-23T00:54:21.034Z,18.95
2018-07-23T00:56:49.409Z,19.37
2018-07-23T00:59:17.752Z,18.77
2018-07-23T01:01:46.090Z,20.07
2018-07-23T01:04:14.434Z,18.50
2018-07-23T01:06:43.061Z,19.43
2018-07-23T01:09:11.614Z,19.47
2018-07-23T01:11:40.113Z,20.70
2018-07-23T01:14:08.574Z,20.67
2018-07-23T01:16:37.072Z,18.97
2018-07-23T01:19:05.789Z,20.50
2018-07-23T01:21:34.462Z,19.27
2018-07-23T01:24:02.828Z,19.80
2018-07-23T01:26:31.200Z,20.43
2018-07-23T01:28:59.591Z,19.27
2018-07-23T01:31:28.073Z,19.17
2018-07-23T01:33:56.479Z,19.63
2018-07-23T01:36:25.413Z,20.17
2018-07-23T01:38:53.800Z,18.30
2018-07-23T01:41:22.167Z,19.90
2018-07-23T01:43:50.493Z,18.63
2018-07-23T01:46:18.835Z,17.63
2018-07-23T01:48:47.208Z,18.13
2018-07-23T01:51:15.542Z,17.83
2018-07-23T01:53:44.267Z,16.83
2018-07-23T01:56:13.618Z,16.50
2018-07-23T01:58:42.312Z,16.30
2018-07-23T02:01:11.970Z,17.47
2018-07-23T02:03:41.534Z,16.97
2018-07-23T02:06:10.147Z,16.87
2018-07-23T02:08:38.470Z,16.43
2018-07-23T02:11:07.677Z,20.77
2018-07-23T02:13:36.086Z,20.40
2018-07-23T02:16:04.450Z,21.73
2018-07-23T02:18:33.371Z,20.45
2018-07-23T02:21:01.821Z,19.47
2018-07-23T02:23:30.188Z,20.60
2018-07-23T02:25:58.602Z,21.43
2018-07-23T02:28:27.184Z,20.80
2018-07-23T02:30:55.546Z,21.30
2018-07-23T02:33:24.118Z,22.00
2018-07-23T02:35:52.458Z,20.87
2018-07-23T02:38:20.833Z,22.63
2018-07-23T02:40:49.206Z,21.87
2018-07-23T02:43:17.576Z,24.67
2018-07-23T02:45:46.150Z,23.47
2018-07-23T02:48:14.233Z,22.23
2018-07-23T02:50:42.589Z,24.07
2018-07-23T02:53:11.204Z,22.57
2018-07-23T02:55:39.999Z,23.10
2018-07-23T02:58:09.161Z,24.33
2018-07-23T03:00:37.513Z,24.90
2018-07-23T03:03:05.900Z,25.17
2018-07-23T03:05:34.311Z,25.53
2018-07-23T03:08:02.889Z,24.20
2018-07-23T03:10:31.374Z,24.30
2018-07-23T03:12:59.456Z,27.13
2018-07-23T03:15:27.886Z,24.93
2018-07-23T03:17:56.276Z,29.83
2018-07-23T03:20:24.617Z,29.20
2018-07-23T03:22:53.161Z,27.97
2018-07-23T03:25:21.513Z,29.23
2018-07-23T03:27:50.165Z,34.10
2018-07-23T03:30:18.560Z,30.23
2018-07-23T03:32:47.555Z,32.17
2018-07-23T03:35:16.197Z,30.73
2018-07-23T03:37:44.533Z,31.37
2018-07-23T03:40:13.216Z,32.47
2018-07-23T03:42:41.604Z,35.27
2018-07-23T03:45:10.020Z,37.57
2018-07-23T03:47:42.569Z,31.97
2018-07-23T03:50:10.938Z,30.90
2018-07-23T03:52:39.320Z,28.10
2018-07-23T03:55:07.694Z,26.77
2018-07-23T03:57:36.688Z,26.63
2018-07-23T04:00:05.278Z,26.50
2018-07-23T04:02:33.630Z,24.97
2018-07-23T04:05:02.188Z,23.83
2018-07-23T04:07:30.531Z,24.40
2018-07-23T04:09:59.244Z,23.23
2018-07-23T04:12:27.595Z,23.57
2018-07-23T04:14:55.937Z,22.77
2018-07-23T04:17:24.386Z,22.37
2018-07-23T04:19:52.859Z,22.13
2018-07-23T04:22:20.946Z,23.93
2018-07-23T04:24:49.592Z,25.07
2018-07-23T04:27:17.948Z,29.23
2018-07-23T04:29:46.398Z,25.10
2018-07-23T04:32:14.783Z,24.83
2018-07-23T04:34:43.256Z,25.23
2018-07-23T04:37:11.637Z,27.70
2018-07-23T04:39:40.314Z,22.60
2018-07-23T04:42:08.725Z,22.63
2018-07-23T04:44:37.250Z,24.70
2018-07-23T04:47:05.793Z,26.00
2018-07-23T04:49:34.153Z,26.43
2018-07-23T04:52:02.527Z,29.27
2018-07-23T04:54:33.152Z,27.52
2018-07-23T04:57:01.543Z,29.37
2018-07-23T04:59:30.293Z,28.97
2018-07-23T05:01:58.687Z,27.90
2018-07-23T05:04:27.180Z,30.20
2018-07-23T05:06:55.700Z,28.20
2018-07-23T05:09:24.180Z,31.83
2018-07-23T05:11:52.563Z,28.57
2018-07-23T05:14:21.727Z,26.63
2018-07-23T05:16:50.271Z,25.97
2018-07-23T05:19:18.643Z,28.57
2018-07-23T05:21:47.191Z,25.47
2018-07-23T05:24:15.512Z,22.13
2018-07-23T05:26:43.958Z,23.73
2018-07-23T05:29:12.320Z,24.20
2018-07-23T05:31:40.729Z,24.77
2018-07-23T05:34:09.277Z,23.20
2018-07-23T05:36:40.416Z,27.87
2018-07-23T05:39:10.275Z,24.93
2018-07-23T05:41:38.650Z,24.23
2018-07-23T05:44:07.281Z,24.60
2018-07-23T05:46:35.730Z,25.17
2018-07-23T05:49:04.245Z,25.23
2018-07-23T05:51:32.581Z,26.53
2018-07-23T05:54:00.981Z,25.70
2018-07-23T05:56:29.293Z,25.53
2018-07-23T05:58:57.701Z,25.07
2018-07-23T06:01:26.278Z,25.63
2018-07-23T06:03:54.677Z,23.07
2018-07-23T06:06:23.136Z,25.63
2018-07-23T06:08:51.638Z,24.53
2018-07-23T06:11:20.260Z,23.77
2018-07-23T06:13:48.599Z,24.17
2018-07-23T06:16:17.230Z,24.10
2018-07-23T06:18:45.583Z,25.77
2018-07-23T06:21:13.963Z,22.57
2018-07-23T06:23:42.327Z,25.93
2018-07-23T06:26:10.675Z,25.97
2018-07-23T06:28:39.336Z,31.83
2018-07-23T06:31:07.693Z,31.07
2018-07-23T06:33:36.142Z,26.27
2018-07-23T06:36:04.484Z,27.73
2018-07-23T06:38:32.891Z,28.63
2018-07-23T06:41:01.396Z,28.77
2018-07-23T06:43:29.761Z,32.83
2018-07-23T06:45:58.333Z,29.80
2018-07-23T06:48:26.690Z,27.60
2018-07-23T06:50:55.255Z,30.27
2018-07-23T06:53:23.681Z,24.90
2018-07-23T06:55:52.049Z,30.27
2018-07-23T06:58:20.445Z,28.27
2018-07-23T07:00:48.850Z,26.30
2018-07-23T07:03:17.300Z,28.20
2018-07-23T07:05:45.891Z,30.60
2018-07-23T07:08:14.354Z,27.57
2018-07-23T07:10:42.710Z,31.37
2018-07-23T07:13:11.496Z,30.23
2018-07-23T07:15:39.889Z,31.03
2018-07-23T07:18:08.613Z,28.03
2018-07-23T07:20:37.495Z,31.37
2018-07-23T07:23:06.110Z,26.27
2018-07-23T07:25:34.642Z,23.90
2018-07-23T07:28:03.213Z,25.43
2018-07-23T07:30:31.604Z,29.53
2018-07-23T07:33:00.039Z,26.40
2018-07-23T07:35:28.382Z,25.13
2018-07-23T07:37:56.778Z,23.83
2018-07-23T07:40:25.416Z,22.40
2018-07-23T07:42:53.782Z,23.33
2018-07-23T07:45:22.274Z,23.13
2018-07-23T07:47:50.660Z,21.37
2018-07-23T07:50:19.015Z,22.23
2018-07-23T07:52:47.386Z,24.93
2018-07-23T07:55:16.618Z,22.60
2018-07-23T07:57:45.268Z,21.77
2018-07-23T08:00:13.817Z,23.87
2018-07-23T08:02:43.328Z,23.47
2018-07-23T08:05:12.416Z,29.43
2018-07-23T08:07:41.032Z,23.93
2018-07-23T08:10:09.389Z,26.70
2018-07-23T08:12:37.868Z,25.07
2018-07-23T08:15:06.863Z,25.93
2018-07-23T08:17:35.631Z,23.17
2018-07-23T08:20:04.789Z,22.83
2018-07-23T08:22:39.453Z,22.80
2018-07-23T08:25:08.172Z,21.97
2018-07-23T08:27:36.725Z,24.70
2018-07-23T08:30:06.621Z,23.57
2018-07-23T08:32:35.026Z,21.63
2018-07-23T08:35:03.777Z,21.90
2018-07-23T08:37:32.347Z,22.40
2018-07-23T08:40:00.530Z,22.33
2018-07-23T08:42:29.060Z,23.13
2018-07-23T08:44:57.540Z,23.77
2018-07-23T08:47:26.418Z,26.03
2018-07-23T08:49:54.750Z,24.07
2018-07-23T08:52:23.328Z,23.20
2018-07-23T08:54:51.715Z,22.87
2018-07-23T08:57:21.310Z,24.15
2018-07-23T08:59:49.890Z,24.93
2018-07-23T09:02:18.380Z,24.70
2018-07-23T09:04:46.727Z,26.40
2018-07-23T09:07:15.565Z,29.20
2018-07-23T09:09:44.069Z,28.73
2018-07-23T09:12:12.643Z,28.23
2018-07-23T09:27:31.344Z,29.17
2018-07-23T09:29:59.805Z,29.67
2018-07-23T09:32:28.456Z,29.30
2018-07-23T09:34:57.262Z,29.03
2018-07-23T09:37:25.909Z,29.93
2018-07-23T09:39:54.918Z,31.10
2018-07-23T09:42:23.665Z,32.03
2018-07-23T09:44:52.115Z,30.33
2018-07-23T09:47:20.477Z,29.00
2018-07-23T09:49:48.954Z,30.10
2018-07-23T09:52:17.358Z,28.37
2018-07-23T09:54:45.758Z,31.77
2018-07-23T09:57:14.197Z,29.57
2018-07-23T09:59:42.584Z,30.23
2018-07-23T10:02:10.978Z,29.40
2018-07-23T10:04:39.401Z,33.93
2018-07-23T10:07:07.843Z,38.23
2018-07-23T10:09:36.649Z,33.13
2018-07-23T10:12:05.132Z,33.30
2018-07-23T10:14:33.515Z,31.90
2018-07-23T10:17:02.007Z,32.30
2018-07-23T10:19:30.732Z,29.40
2018-07-23T10:21:59.304Z,28.50
2018-07-23T10:24:27.732Z,28.73
2018-07-23T10:26:56.188Z,29.20
2018-07-23T10:29:24.661Z,29.60
2018-07-23T10:31:53.420Z,25.80
2018-07-23T10:34:21.851Z,28.33
2018-07-23T10:36:50.351Z,28.93
2018-07-23T10:39:18.841Z,26.47
2018-07-23T10:41:47.243Z,26.47
2018-07-23T10:44:15.747Z,27.37
2018-07-23T10:46:45.163Z,26.50
2018-07-23T10:49:13.652Z,27.93
2018-07-23T10:51:45.851Z,29.47
2018-07-23T10:54:14.485Z,26.00
2018-07-23T10:56:42.896Z,28.33
2018-07-23T10:59:11.425Z,26.10
2018-07-23T11:01:40.157Z,26.00
2018-07-23T11:04:08.818Z,24.90
2018-07-23T11:06:37.454Z,24.00
2018-07-23T11:09:07.603Z,25.80
2018-07-23T11:11:36.110Z,24.07
2018-07-23T11:14:04.902Z,20.63
2018-07-23T11:16:34.761Z,22.70
2018-07-23T11:19:06.919Z,24.77
2018-07-23T11:21:36.012Z,22.97
2018-07-23T11:24:04.629Z,21.47
2018-07-23T11:26:33.586Z,21.87
2018-07-23T11:29:01.926Z,22.53
2018-07-23T11:31:30.809Z,24.27
2018-07-23T11:33:59.647Z,24.53
2018-07-23T11:36:29.010Z,23.10
2018-07-23T11:38:57.815Z,23.17
2018-07-23T11:41:26.629Z,21.93
2018-07-23T11:43:55.602Z,21.57
2018-07-23T11:46:24.986Z,21.17
2018-07-23T11:48:53.132Z,21.27
2018-07-23T11:51:21.936Z,20.83
2018-07-23T11:53:50.490Z,22.00
2018-07-23T11:56:18.868Z,20.80
2018-07-23T11:58:47.338Z,96.23
2018-07-23T12:01:15.787Z,36.77
2018-07-23T12:03:44.486Z,40.73
2018-07-23T12:06:12.938Z,124.57
2018-07-23T12:08:41.446Z,40.10
2018-07-23T12:11:09.859Z,26.80
2018-07-23T12:13:38.400Z,26.30
2018-07-23T12:16:06.932Z,25.33
2018-07-23T12:18:35.324Z,25.47
2018-07-23T12:21:03.726Z,20.73
2018-07-23T12:23:32.487Z,18.77
2018-07-23T12:26:00.929Z,19.90
2018-07-23T12:28:29.358Z,19.70
2018-07-23T12:30:57.762Z,18.83
2018-07-23T12:33:26.998Z,17.83
2018-07-23T12:35:58.012Z,18.23
2018-07-23T12:38:26.477Z,18.50
2018-07-23T12:40:54.853Z,20.60
2018-07-23T12:43:23.401Z,20.10
2018-07-23T12:45:51.791Z,21.17
2018-07-23T12:48:21.065Z,21.27
2018-07-23T12:50:49.428Z,19.70
2018-07-23T12:53:17.859Z,22.47
2018-07-23T12:55:46.534Z,20.87
2018-07-23T12:58:14.908Z,18.87
2018-07-23T13:00:43.398Z,19.63
2018-07-23T13:03:11.815Z,18.90
2018-07-23T13:05:40.485Z,21.37
2018-07-23T13:08:08.934Z,17.63
2018-07-23T13:10:37.868Z,17.30
2018-07-23T13:13:06.385Z,16.40
2018-07-23T13:15:34.857Z,18.13
2018-07-23T13:18:03.317Z,19.23
2018-07-23T13:20:31.645Z,17.80
2018-07-23T13:23:00.045Z,17.70
2018-07-23T13:25:30.378Z,17.70
2018-07-23T13:28:01.588Z,18.50
2018-07-23T13:30:31.861Z,17.97
2018-07-23T13:33:00.388Z,17.43
2018-07-23T13:35:30.257Z,17.13
2018-07-23T13:37:58.783Z,16.57
2018-07-23T13:40:27.454Z,18.63
2018-07-23T13:43:00.252Z,17.00
2018-07-23T13:45:28.881Z,16.33
2018-07-23T13:47:57.417Z,15.23
2018-07-23T13:50:25.794Z,15.27
2018-07-23T13:52:54.570Z,15.97
2018-07-23T13:55:23.262Z,14.43
2018-07-23T13:57:51.689Z,17.03
2018-07-23T14:00:21.597Z,15.95
2018-07-23T14:02:50.611Z,13.58
2018-07-23T14:05:19.906Z,13.30
2018-07-23T14:07:48.596Z,14.07
2018-07-23T14:10:18.044Z,13.70
2018-07-23T14:12:47.755Z,13.10
2018-07-23T14:15:16.826Z,13.93
2018-07-23T14:17:46.699Z,13.10
2018-07-23T14:20:16.152Z,14.68
2018-07-23T14:22:44.786Z,17.73
2018-07-23T14:25:13.775Z,15.90
2018-07-23T14:27:43.131Z,15.65
2018-07-23T14:30:12.493Z,15.45
2018-07-23T14:32:41.269Z,15.33
2018-07-23T14:35:09.961Z,15.70
2018-07-23T14:37:38.781Z,14.83
2018-07-23T14:40:07.477Z,15.73
2018-07-23T14:42:36.095Z,15.47
2018-07-23T14:45:05.496Z,16.30
2018-07-23T14:47:34.271Z,13.87
2018-07-23T14:50:02.998Z,19.83
2018-07-23T14:52:31.680Z,14.33
2018-07-23T14:55:03.133Z,13.73
2018-07-23T14:57:31.760Z,13.93
2018-07-23T15:00:03.490Z,14.00
2018-07-23T15:02:32.234Z,14.50
2018-07-23T15:05:00.902Z,14.53
2018-07-23T15:07:29.575Z,14.63
2018-07-23T15:10:06.119Z,13.60
2018-07-23T15:12:34.739Z,14.07
2018-07-23T15:15:03.768Z,15.50
2018-07-23T15:17:35.622Z,13.18
2018-07-23T15:20:04.829Z,15.68
2018-07-23T15:22:34.230Z,14.27
2018-07-23T15:25:03.214Z,13.90
2018-07-23T15:27:32.984Z,12.97
2018-07-23T15:30:02.038Z,13.90
2018-07-23T15:32:30.910Z,13.40
2018-07-23T15:34:59.551Z,13.33
2018-07-23T15:37:27.945Z,13.30
2018-07-23T15:39:56.799Z,14.50
2018-07-23T15:42:25.697Z,15.90
2018-07-23T15:44:54.249Z,14.30
2018-07-23T15:47:24.213Z,14.30
2018-07-23T15:49:52.627Z,13.30
2018-07-23T15:52:22.027Z,13.28
2018-07-23T15:54:50.715Z,14.10
2018-07-23T15:57:20.746Z,14.27
2018-07-23T15:59:49.122Z,14.80
2018-07-23T16:02:17.534Z,14.67
2018-07-23T16:04:46.290Z,16.10
2018-07-23T16:07:14.740Z,15.50
2018-07-23T16:09:43.742Z,14.80
2018-07-23T16:12:12.203Z,15.67
2018-07-23T16:14:40.606Z,15.27
2018-07-23T16:17:09.657Z,15.80
2018-07-23T16:19:38.172Z,19.03
2018-07-23T16:22:06.666Z,20.70
2018-07-23T16:24:35.644Z,16.20
2018-07-23T16:27:04.131Z,16.03
2018-07-23T16:29:32.596Z,14.93
2018-07-23T16:32:00.983Z,15.30
2018-07-23T16:34:29.923Z,16.03
2018-07-23T16:37:00.169Z,15.53
2018-07-23T16:39:28.597Z,15.00
2018-07-23T16:41:57.006Z,15.03
2018-07-23T16:44:25.659Z,15.47
2018-07-23T16:46:54.064Z,14.83
2018-07-23T16:49:22.624Z,16.27
2018-07-23T16:51:51.070Z,15.30
2018-07-23T16:54:19.625Z,15.43
2018-07-23T16:56:55.825Z,15.07
2018-07-23T16:59:24.210Z,14.70
2018-07-23T17:01:52.753Z,14.47
2018-07-23T17:04:23.113Z,14.43
2018-07-23T17:06:51.953Z,13.77
2018-07-23T17:09:23.323Z,14.75
2018-07-23T17:11:56.735Z,14.93
2018-07-23T17:14:26.246Z,14.53
2018-07-23T17:16:54.685Z,16.17
2018-07-23T17:19:23.294Z,15.70
2018-07-23T17:21:53.440Z,15.67
2018-07-23T17:24:22.694Z,14.40
2018-07-23T17:26:51.674Z,14.60
2018-07-23T17:29:20.083Z,19.40
2018-07-23T17:31:50.414Z,15.03
2018-07-23T17:34:19.028Z,15.27
2018-07-23T17:36:48.933Z,15.87
2018-07-23T17:39:17.498Z,14.23
2018-07-23T17:41:48.026Z,14.87
2018-07-23T17:44:16.635Z,14.10
2018-07-23T17:46:46.273Z,13.50
2018-07-23T17:49:14.717Z,13.43
2018-07-23T17:51:45.751Z,13.20
2018-07-23T17:54:14.675Z,12.93
2018-07-23T17:56:43.331Z,13.47
2018-07-23T17:59:13.779Z,12.63
2018-07-23T18:01:42.581Z,18.63
2018-07-23T18:04:11.130Z,12.47
2018-07-23T18:06:39.761Z,13.80
2018-07-23T18:09:11.157Z,13.17
2018-07-23T18:11:40.718Z,13.93
2018-07-23T18:14:09.548Z,14.53
2018-07-23T18:16:37.961Z,15.43
2018-07-23T18:19:06.511Z,18.00
2018-07-23T18:21:34.855Z,18.93
2018-07-23T18:24:03.335Z,30.23
2018-07-23T18:26:31.797Z,20.17
2018-07-23T18:29:00.193Z,18.37
2018-07-23T18:31:28.683Z,21.33
2018-07-23T18:33:57.142Z,22.93
2018-07-23T18:36:25.577Z,27.27
2018-07-23T18:38:55.147Z,19.67
2018-07-23T18:41:23.739Z,14.17
2018-07-23T18:43:53.400Z,18.27
2018-07-23T18:46:24.172Z,14.77
2018-07-23T18:49:31.371Z,14.80
2018-07-23T18:52:10.331Z,17.00
2018-07-23T18:54:46.400Z,21.20
2018-07-23T18:57:14.849Z,20.47
2018-07-23T18:59:43.257Z,19.37
2018-07-23T19:02:14.191Z,16.93
2018-07-23T19:04:42.653Z,17.00
2018-07-23T19:07:11.119Z,26.03
2018-07-23T19:09:41.129Z,20.27
2018-07-23T19:12:10.195Z,17.90
2018-07-23T19:14:38.929Z,20.57
2018-07-23T19:17:09.181Z,17.63
2018-07-23T19:19:38.047Z,26.07
2018-07-23T19:22:08.011Z,20.27
2018-07-23T19:24:36.635Z,43.20
2018-07-23T19:27:05.344Z,24.17
2018-07-23T19:29:33.777Z,19.97
2018-07-23T19:32:02.714Z,17.57
2018-07-23T19:34:31.263Z,17.73
2018-07-23T19:37:00.701Z,19.97
2018-07-23T19:39:30.041Z,18.57
2018-07-23T19:42:03.037Z,18.10
2018-07-23T19:44:36.980Z,18.80
2018-07-23T19:47:09.044Z,18.50
2018-07-23T19:49:46.154Z,19.00
2018-07-23T19:52:22.991Z,19.63
2018-07-23T19:54:52.538Z,46.40
2018-07-23T19:57:36.448Z,33.88
2018-07-23T20:00:05.202Z,31.83
2018-07-23T20:02:33.623Z,26.50
2018-07-23T20:05:02.166Z,24.13
2018-07-23T20:07:30.719Z,24.30
2018-07-23T20:09:59.220Z,23.03
2018-07-23T20:12:27.757Z,22.50
2018-07-23T20:14:56.424Z,26.73
2018-07-23T20:17:24.947Z,22.93
2018-07-23T20:19:53.394Z,21.77
2018-07-23T20:22:21.771Z,19.63
2018-07-23T20:24:50.863Z,17.13
2018-07-23T20:27:19.297Z,16.20
2018-07-23T20:29:47.702Z,14.90
2018-07-23T20:32:16.455Z,16.43
2018-07-23T20:34:45.697Z,15.53
2018-07-23T20:37:14.804Z,19.50
2018-07-23T20:39:43.368Z,13.83
2018-07-23T20:42:13.975Z,13.40
2018-07-23T20:44:42.925Z,13.77
2018-07-23T20:47:12.057Z,13.23
2018-07-23T20:49:41.578Z,11.90
2018-07-23T20:52:10.272Z,11.47
2018-07-23T20:54:38.931Z,10.43
2018-07-23T20:57:07.922Z,10.97
2018-07-23T20:59:37.004Z,12.57
2018-07-23T21:02:05.915Z,10.87
2018-07-23T21:04:34.343Z,10.57
2018-07-23T21:07:02.797Z,10.43
2018-07-23T21:09:31.141Z,11.83
2018-07-23T21:11:59.996Z,12.27
2018-07-23T21:14:28.418Z,11.10
2018-07-23T21:16:56.836Z,11.60
2018-07-23T21:19:25.235Z,10.87
2018-07-23T21:21:53.686Z,10.73
2018-07-23T21:24:22.433Z,10.93
2018-07-23T21:26:50.864Z,12.07
2018-07-23T21:29:19.246Z,11.83
2018-07-23T21:31:49.076Z,12.17
2018-07-23T21:34:17.694Z,11.53
2018-07-23T21:36:46.128Z,11.90
2018-07-23T21:39:14.560Z,11.00
2018-07-23T21:41:43.013Z,11.23
2018-07-23T21:44:12.275Z,12.20
2018-07-23T21:46:47.059Z,11.07
2018-07-23T21:49:15.744Z,12.13
2018-07-23T21:51:44.180Z,11.40
2018-07-23T21:54:12.618Z,11.20
2018-07-23T21:57:00.620Z,11.47
2018-07-23T21:59:29.174Z,12.60
2018-07-23T22:01:57.916Z,11.03
2018-07-23T22:04:26.422Z,11.47
2018-07-23T22:06:55.022Z,12.37
2018-07-23T22:09:23.570Z,11.93
2018-07-23T22:11:51.951Z,11.30
2018-07-23T22:14:21.381Z,11.47
2018-07-23T22:16:49.808Z,11.97
2018-07-23T22:19:20.680Z,11.37
2018-07-23T22:21:49.838Z,12.03
2018-07-23T22:24:18.370Z,12.40
2018-07-23T22:26:46.803Z,12.73
2018-07-23T22:29:16.095Z,11.80
2018-07-23T22:31:44.613Z,12.93
2018-07-23T22:34:13.319Z,13.33
2018-07-23T22:36:41.754Z,12.43
2018-07-23T22:39:12.212Z,13.20
2018-07-23T22:41:48.962Z,13.50
2018-07-23T22:44:17.326Z,12.67
2018-07-23T22:46:47.824Z,13.20
2018-07-23T22:49:31.119Z,12.57
2018-07-23T22:52:00.328Z,13.80
2018-07-23T22:54:28.898Z,15.40
2018-07-23T22:56:57.279Z,14.97
2018-07-23T22:59:25.861Z,14.27
2018-07-23T23:01:54.293Z,15.80
2018-07-23T23:04:22.997Z,14.83
2018-07-23T23:06:51.692Z,14.13
2018-07-23T23:09:20.419Z,14.50
2018-07-23T23:11:48.806Z,14.87
2018-07-23T23:14:17.317Z,14.30
2018-07-23T23:16:45.712Z,14.00
2018-07-23T23:19:14.225Z,14.60
2018-07-23T23:21:42.657Z,14.63
2018-07-23T23:24:11.155Z,15.53
2018-07-23T23:26:39.950Z,15.30
2018-07-23T23:29:08.285Z,15.73
2018-07-23T23:31:37.103Z,15.33
2018-07-23T23:34:05.760Z,15.47
2018-07-23T23:36:34.170Z,15.03
2018-07-23T23:39:02.901Z,16.50
2018-07-23T23:41:31.367Z,15.23
2018-07-23T23:57:00.182Z,15.27
2018-07-23T23:59:28.800Z,16.10
